LOT4PY EPKK-EPWA
Flight info
| Callsign | LOT4PY |
|---|---|
| Flight time | 0h 33m |
| Altitude | 27000 |
| Route | POBOK M985 KOTEK M866 LOGDA |
| Aircraft | B38M/M-SDE1FGHILORVWXY/HB1 |
Departure
| Time | 2026-04-30 19:33 |
|---|---|
| Airport | Kraków John Paul II International Airport (EPKK) |
Arrival
| Time | 2026-04-30 20:07 |
|---|---|
| Airport | Warsaw Chopin Airport (EPWA) |
| Time | Latitude | Longitude | Altitude | Speed | Heading |
|---|---|---|---|---|---|
| 2026-04-30 19:01 | 50.07289 | 19.79887 | 802 ft | 0 kts | 168° |
| 2026-04-30 19:09 | 50.07273 | 19.79779 | 802 ft | 0 kts | 168° |
| 2026-04-30 19:24 | 50.07286 | 19.79774 | 802 ft | 3 kts | 168° |
| 2026-04-30 19:25 | 50.07323 | 19.79756 | 802 ft | 2 kts | 163° |
| 2026-04-30 19:26 | 50.07345 | 19.79755 | 802 ft | 2 kts | 199° |
| 2026-04-30 19:26 | 50.07365 | 19.79780 | 802 ft | 2 kts | 249° |
| 2026-04-30 19:26 | 50.07368 | 19.79800 | 802 ft | 3 kts | 259° |
| 2026-04-30 19:27 | 50.07371 | 19.79827 | 802 ft | 0 kts | 259° |
| 2026-04-30 19:30 | 50.07526 | 19.79740 | 802 ft | 16 kts | 347° |
| 2026-04-30 19:30 | 50.07702 | 19.79793 | 802 ft | 15 kts | 78° |
| 2026-04-30 19:31 | 50.07750 | 19.80138 | 802 ft | 15 kts | 78° |
| 2026-04-30 19:31 | 50.07773 | 19.80296 | 802 ft | 14 kts | 69° |
| 2026-04-30 19:31 | 50.07931 | 19.80308 | 802 ft | 14 kts | 347° |
| 2026-04-30 19:32 | 50.08013 | 19.80233 | 802 ft | 15 kts | 285° |
| 2026-04-30 19:32 | 50.07995 | 19.80077 | 803 ft | 17 kts | 257° |
| 2026-04-30 19:32 | 50.07933 | 19.79635 | 803 ft | 75 kts | 258° |
| 2026-04-30 19:32 | 50.07781 | 19.78533 | 803 ft | 132 kts | 257° |
| 2026-04-30 19:33 | 50.07562 | 19.76931 | 959 ft | 159 kts | 261° |
| 2026-04-30 19:33 | 50.07352 | 19.75169 | 1381 ft | 174 kts | 261° |
| 2026-04-30 19:33 | 50.07113 | 19.73320 | 2073 ft | 174 kts | 261° |
| 2026-04-30 19:33 | 50.06835 | 19.71465 | 2688 ft | 181 kts | 260° |
| 2026-04-30 19:34 | 50.06527 | 19.69446 | 3116 ft | 204 kts | 260° |
| 2026-04-30 19:34 | 50.06242 | 19.67167 | 3563 ft | 224 kts | 272° |
| 2026-04-30 19:34 | 50.07931 | 19.63151 | 4599 ft | 248 kts | 338° |
| 2026-04-30 19:35 | 50.09615 | 19.62491 | 5428 ft | 250 kts | 348° |
| 2026-04-30 19:35 | 50.11326 | 19.61916 | 6302 ft | 254 kts | 353° |
| 2026-04-30 19:35 | 50.13066 | 19.62193 | 7163 ft | 254 kts | 20° |
| 2026-04-30 19:35 | 50.14611 | 19.63549 | 7978 ft | 258 kts | 38° |
| 2026-04-30 19:36 | 50.15982 | 19.65363 | 8829 ft | 260 kts | 38° |
| 2026-04-30 19:36 | 50.17385 | 19.67155 | 9708 ft | 262 kts | 38° |
| 2026-04-30 19:36 | 50.20241 | 19.70866 | 10966 ft | 281 kts | 39° |
| 2026-04-30 19:37 | 50.21810 | 19.72842 | 11368 ft | 297 kts | 34° |
| 2026-04-30 19:37 | 50.23622 | 19.74471 | 12047 ft | 302 kts | 29° |
| 2026-04-30 19:37 | 50.25459 | 19.76071 | 12906 ft | 304 kts | 30° |
| 2026-04-30 19:37 | 50.27313 | 19.77699 | 13743 ft | 306 kts | 30° |
| 2026-04-30 19:38 | 50.29177 | 19.79343 | 14578 ft | 308 kts | 30° |
| 2026-04-30 19:38 | 50.31048 | 19.80997 | 15365 ft | 311 kts | 30° |
| 2026-04-30 19:38 | 50.32936 | 19.82671 | 16174 ft | 313 kts | 30° |
| 2026-04-30 19:38 | 50.34838 | 19.84357 | 16962 ft | 315 kts | 30° |
| 2026-04-30 19:39 | 50.36751 | 19.86056 | 17743 ft | 317 kts | 30° |
| 2026-04-30 19:39 | 50.38680 | 19.87771 | 18517 ft | 320 kts | 30° |
| 2026-04-30 19:39 | 50.40620 | 19.89497 | 19176 ft | 322 kts | 30° |
| 2026-04-30 19:39 | 50.42549 | 19.91215 | 19859 ft | 323 kts | 30° |
| 2026-04-30 19:40 | 50.44503 | 19.92957 | 20511 ft | 325 kts | 30° |
| 2026-04-30 19:40 | 50.46475 | 19.94717 | 21159 ft | 326 kts | 30° |
| 2026-04-30 19:40 | 50.48453 | 19.96482 | 21781 ft | 328 kts | 31° |
| 2026-04-30 19:40 | 50.50440 | 19.98259 | 22428 ft | 330 kts | 31° |
| 2026-04-30 19:41 | 50.52439 | 20.00047 | 23055 ft | 332 kts | 31° |
| 2026-04-30 19:41 | 50.54464 | 20.01861 | 23326 ft | 335 kts | 31° |
| 2026-04-30 19:41 | 50.56484 | 20.03671 | 23382 ft | 333 kts | 31° |
| 2026-04-30 19:41 | 50.58496 | 20.05477 | 23379 ft | 333 kts | 31° |
| 2026-04-30 19:42 | 50.60501 | 20.07272 | 23377 ft | 332 kts | 30° |
| 2026-04-30 19:42 | 50.62621 | 20.08769 | 23381 ft | 333 kts | 26° |
| 2026-04-30 19:42 | 50.64744 | 20.10223 | 23382 ft | 333 kts | 26° |
| 2026-04-30 19:42 | 50.66864 | 20.11697 | 23377 ft | 333 kts | 26° |
| 2026-04-30 19:43 | 50.68979 | 20.13183 | 23379 ft | 333 kts | 26° |
| 2026-04-30 19:43 | 50.71095 | 20.14678 | 23375 ft | 333 kts | 26° |
| 2026-04-30 19:43 | 50.73207 | 20.16175 | 23381 ft | 333 kts | 26° |
| 2026-04-30 19:44 | 50.77305 | 20.19087 | 23380 ft | 309 kts | 26° |
| 2026-04-30 19:44 | 50.79219 | 20.20450 | 23383 ft | 295 kts | 26° |
| 2026-04-30 19:44 | 50.81070 | 20.21769 | 23024 ft | 291 kts | 26° |
| 2026-04-30 19:44 | 50.82905 | 20.23077 | 22632 ft | 288 kts | 26° |
| 2026-04-30 19:45 | 50.84724 | 20.24375 | 22297 ft | 285 kts | 26° |
| 2026-04-30 19:45 | 50.86516 | 20.25655 | 21987 ft | 280 kts | 26° |
| 2026-04-30 19:45 | 50.88277 | 20.26914 | 21689 ft | 276 kts | 26° |
| 2026-04-30 19:45 | 50.90016 | 20.28159 | 21394 ft | 271 kts | 26° |
| 2026-04-30 19:46 | 50.91720 | 20.29380 | 21123 ft | 267 kts | 26° |
| 2026-04-30 19:46 | 50.93396 | 20.30581 | 20847 ft | 263 kts | 26° |
| 2026-04-30 19:46 | 50.95068 | 20.31780 | 20571 ft | 267 kts | 26° |
| 2026-04-30 19:46 | 50.96776 | 20.33006 | 20284 ft | 272 kts | 26° |
| 2026-04-30 19:47 | 50.98508 | 20.34251 | 19995 ft | 275 kts | 26° |
| 2026-04-30 19:47 | 50.99664 | 20.35082 | 19810 ft | 275 kts | 25° |
| 2026-04-30 19:47 | 51.01995 | 20.36760 | 19436 ft | 275 kts | 25° |
| 2026-04-30 19:47 | 51.03734 | 20.38012 | 19156 ft | 274 kts | 25° |
| 2026-04-30 19:48 | 51.05472 | 20.39265 | 18869 ft | 274 kts | 25° |
| 2026-04-30 19:48 | 51.07206 | 20.40517 | 18573 ft | 274 kts | 25° |
| 2026-04-30 19:48 | 51.08933 | 20.41763 | 18259 ft | 273 kts | 25° |
| 2026-04-30 19:48 | 51.10662 | 20.43013 | 17961 ft | 272 kts | 25° |
| 2026-04-30 19:49 | 51.12385 | 20.44259 | 17676 ft | 272 kts | 25° |
| 2026-04-30 19:49 | 51.15818 | 20.46745 | 17114 ft | 271 kts | 25° |
| 2026-04-30 19:49 | 51.17532 | 20.47988 | 16829 ft | 270 kts | 25° |
| 2026-04-30 19:50 | 51.19242 | 20.49229 | 16552 ft | 269 kts | 25° |
| 2026-04-30 19:50 | 51.20947 | 20.50467 | 16274 ft | 269 kts | 25° |
| 2026-04-30 19:50 | 51.22652 | 20.51706 | 15992 ft | 269 kts | 25° |
| 2026-04-30 19:50 | 51.24330 | 20.52927 | 15714 ft | 268 kts | 25° |
| 2026-04-30 19:51 | 51.26044 | 20.54175 | 15432 ft | 268 kts | 25° |
| 2026-04-30 19:51 | 51.27717 | 20.55394 | 15157 ft | 267 kts | 25° |
| 2026-04-30 19:51 | 51.29407 | 20.56626 | 14879 ft | 267 kts | 25° |
| 2026-04-30 19:51 | 51.31097 | 20.57860 | 14595 ft | 267 kts | 25° |
| 2026-04-30 19:52 | 51.32785 | 20.59091 | 14326 ft | 266 kts | 24° |
| 2026-04-30 19:52 | 51.34468 | 20.60321 | 14034 ft | 266 kts | 24° |
| 2026-04-30 19:52 | 51.36154 | 20.61556 | 13724 ft | 266 kts | 25° |
| 2026-04-30 19:52 | 51.37831 | 20.62783 | 13438 ft | 265 kts | 24° |
| 2026-04-30 19:53 | 51.39503 | 20.64009 | 13158 ft | 264 kts | 24° |
| 2026-04-30 19:53 | 51.41176 | 20.65236 | 12884 ft | 263 kts | 24° |
| 2026-04-30 19:53 | 51.42839 | 20.66456 | 12606 ft | 263 kts | 24° |
| 2026-04-30 19:53 | 51.44498 | 20.67675 | 12329 ft | 262 kts | 24° |
| 2026-04-30 19:54 | 51.46157 | 20.68894 | 12060 ft | 262 kts | 24° |
| 2026-04-30 19:54 | 51.47808 | 20.70109 | 11786 ft | 262 kts | 24° |
| 2026-04-30 19:54 | 51.49460 | 20.71325 | 11512 ft | 261 kts | 24° |
| 2026-04-30 19:54 | 51.51118 | 20.72547 | 11175 ft | 263 kts | 24° |
| 2026-04-30 19:55 | 51.52794 | 20.73783 | 10726 ft | 267 kts | 24° |
| 2026-04-30 19:55 | 51.54482 | 20.75028 | 10370 ft | 267 kts | 24° |
| 2026-04-30 19:55 | 51.56151 | 20.76262 | 10180 ft | 260 kts | 24° |
| 2026-04-30 19:55 | 51.57771 | 20.77459 | 9951 ft | 254 kts | 24° |
| 2026-04-30 19:56 | 51.59367 | 20.78641 | 9658 ft | 251 kts | 24° |
| 2026-04-30 19:56 | 51.60941 | 20.79805 | 9377 ft | 248 kts | 24° |
| 2026-04-30 19:56 | 51.62500 | 20.80961 | 9114 ft | 245 kts | 24° |
| 2026-04-30 19:56 | 51.64035 | 20.82099 | 8857 ft | 241 kts | 24° |
| 2026-04-30 19:57 | 51.65545 | 20.83219 | 8607 ft | 238 kts | 24° |
| 2026-04-30 19:57 | 51.67039 | 20.84329 | 8353 ft | 234 kts | 24° |
| 2026-04-30 19:57 | 51.68505 | 20.85418 | 8106 ft | 231 kts | 24° |
| 2026-04-30 19:57 | 51.69974 | 20.86511 | 7861 ft | 236 kts | 24° |
| 2026-04-30 19:58 | 51.71479 | 20.87631 | 7604 ft | 240 kts | 24° |
| 2026-04-30 19:58 | 51.73004 | 20.88767 | 7352 ft | 242 kts | 24° |
| 2026-04-30 19:58 | 51.74533 | 20.89906 | 7092 ft | 242 kts | 24° |
| 2026-04-30 19:58 | 51.76063 | 20.91047 | 6836 ft | 242 kts | 24° |
| 2026-04-30 19:59 | 51.77584 | 20.92184 | 6560 ft | 241 kts | 24° |
| 2026-04-30 19:59 | 51.79098 | 20.93314 | 6284 ft | 239 kts | 23° |
| 2026-04-30 19:59 | 51.82077 | 20.95542 | 5764 ft | 232 kts | 23° |
| 2026-04-30 20:00 | 51.83512 | 20.96616 | 5525 ft | 229 kts | 23° |
| 2026-04-30 20:00 | 51.84949 | 20.97693 | 5280 ft | 227 kts | 23° |
| 2026-04-30 20:00 | 51.86412 | 20.98790 | 5024 ft | 232 kts | 23° |
| 2026-04-30 20:00 | 51.87879 | 20.99891 | 4783 ft | 237 kts | 23° |
| 2026-04-30 20:01 | 51.90880 | 21.02145 | 4536 ft | 238 kts | 23° |
| 2026-04-30 20:01 | 51.92385 | 21.03276 | 4409 ft | 238 kts | 23° |
| 2026-04-30 20:01 | 51.93892 | 21.04410 | 4279 ft | 239 kts | 23° |
| 2026-04-30 20:02 | 51.96898 | 21.06674 | 3986 ft | 238 kts | 23° |
| 2026-04-30 20:02 | 51.98403 | 21.07810 | 3830 ft | 238 kts | 23° |
| 2026-04-30 20:03 | 52.01510 | 21.09462 | 3307 ft | 236 kts | 355° |
| 2026-04-30 20:03 | 52.03026 | 21.08714 | 3040 ft | 223 kts | 329° |
| 2026-04-30 20:03 | 52.04299 | 21.07434 | 2972 ft | 210 kts | 330° |
| 2026-04-30 20:03 | 52.05573 | 21.06312 | 2678 ft | 208 kts | 333° |
| 2026-04-30 20:04 | 52.06807 | 21.05249 | 2402 ft | 193 kts | 332° |
| 2026-04-30 20:04 | 52.07934 | 21.04267 | 2133 ft | 176 kts | 332° |
| 2026-04-30 20:04 | 52.09007 | 21.03331 | 1882 ft | 174 kts | 332° |
| 2026-04-30 20:05 | 52.11117 | 21.01489 | 1397 ft | 163 kts | 332° |
| 2026-04-30 20:05 | 52.12026 | 21.00694 | 1197 ft | 146 kts | 332° |
| 2026-04-30 20:05 | 52.13797 | 20.99141 | 745 ft | 144 kts | 330° |
| 2026-04-30 20:06 | 52.14615 | 20.98398 | 563 ft | 146 kts | 331° |
| 2026-04-30 20:06 | 52.15375 | 20.97756 | 416 ft | 144 kts | 332° |
| 2026-04-30 20:06 | 52.15853 | 20.97351 | 353 ft | 135 kts | 332° |
| 2026-04-30 20:06 | 52.16554 | 20.96733 | 342 ft | 70 kts | 330° |
| 2026-04-30 20:07 | 52.16833 | 20.96533 | 338 ft | 29 kts | 346° |
| 2026-04-30 20:07 | 52.16961 | 20.96511 | 339 ft | 0 kts | 2° |
| 2026-04-30 20:07 | 52.17030 | 20.96515 | 339 ft | 0 kts | 5° |
| 2026-04-30 20:08 | 52.17032 | 20.96515 | 340 ft | 0 kts | 5° |
| 2026-04-30 20:08 | 52.17038 | 20.96516 | 337 ft | 0 kts | 6° |
| 2026-04-30 20:08 | 52.17041 | 20.96517 | 337 ft | 1 kts | 7° |
| 2026-04-30 20:09 | 52.17058 | 20.96526 | 341 ft | 5 kts | 26° |
| 2026-04-30 20:09 | 52.17103 | 20.96611 | 338 ft | 14 kts | 60° |
| 2026-04-30 20:09 | 52.17148 | 20.96845 | 337 ft | 9 kts | 140° |
| 2026-04-30 20:10 | 52.17077 | 20.96963 | 340 ft | 6 kts | 71° |
| 2026-04-30 20:10 | 52.17085 | 20.97009 | 340 ft | 5 kts | 76° |
| 2026-04-30 20:10 | 52.17091 | 20.97044 | 338 ft | 3 kts | 75° |
| 2026-04-30 20:11 | 52.17094 | 20.97060 | 336 ft | 0 kts | 75° |